CheckWX is a tool to help pilots better visualize weather data.  It is not intended as a substitute for an official pre-flight weather briefing.

04:19:04 UTC

EGXT METAR
RAF Wittering Airport
Wittering, United Kingdom
Current

1 hour ago

EGXT 250250Z AUTO 12005KT 9999 BKN048/// SCT100/// 07/06 Q0996
Observed
Apr-25 @ 02:50 UTC
Wind
  • 120° at 5 KTS
Visibility
10,000+ meters
Flight Rules
VFR
Cloud Levels
  • Broken at 4,800' AGL
  • Scattered at 10,000' AGL
Temperature
C / 45°F
Dewpoint
C / 43°F
Humidity
93%
Altimeter
29.41" Hg
Pressure
995.92 hPa
Previous

2 hours ago

EGXT 250150Z AUTO 13004KT 9999 FEW150/// 06/05 Q0996
Observed
Apr-25 @ 01:50 UTC
Wind
  • 130° at 4 KTS
Visibility
10,000+ meters
Flight Rules
VFR
Cloud Levels
  • Few at 15,000' AGL
Temperature
C / 43°F
Dewpoint
C / 41°F
Humidity
93%
Altimeter
29.41" Hg
Pressure
995.92 hPa
Previous

3 hours ago

EGXT 250050Z AUTO 14004KT 9999 NCD 07/06 Q0997
Observed
Apr-25 @ 00:50 UTC
Wind
  • 140° at 4 KTS
Visibility
10,000+ meters
Flight Rules
VFR
Cloud Levels
  • Clear skies
Temperature
C / 45°F
Dewpoint
C / 43°F
Humidity
93%
Altimeter
29.44" Hg
Pressure
996.92 hPa